sensor_id;sensor_type;location;lat;lon;timestamp;temperature;humidity
52731;DHT22;38624;53.242;6.974;2022-08-06T00:02:21;14.00;99.90
52731;DHT22;38624;53.242;6.974;2022-08-06T00:04:49;14.00;99.90
52731;DHT22;38624;53.242;6.974;2022-08-06T00:07:14;14.00;99.90
52731;DHT22;38624;53.242;6.974;2022-08-06T00:09:40;13.90;99.90
52731;DHT22;38624;53.242;6.974;2022-08-06T00:12:06;13.90;99.90
52731;DHT22;38624;53.242;6.974;2022-08-06T00:14:32;13.80;99.90
52731;DHT22;38624;53.242;6.974;2022-08-06T00:16:58;13.80;99.90
52731;DHT22;38624;53.242;6.974;2022-08-06T00:19:24;13.80;99.90
52731;DHT22;38624;53.242;6.974;2022-08-06T00:21:51;13.70;99.90
52731;DHT22;38624;53.242;6.974;2022-08-06T00:24:18;13.70;99.90
52731;DHT22;38624;53.242;6.974;2022-08-06T00:26:44;13.70;99.90
52731;DHT22;38624;53.242;6.974;2022-08-06T00:29:10;13.70;99.90
52731;DHT22;38624;53.242;6.974;2022-08-06T00:31:36;13.70;99.90
52731;DHT22;38624;53.242;6.974;2022-08-06T00:34:02;13.70;99.90
52731;DHT22;38624;53.242;6.974;2022-08-06T00:36:31;13.70;99.90
52731;DHT22;38624;53.242;6.974;2022-08-06T00:38:58;13.70;99.90
52731;DHT22;38624;53.242;6.974;2022-08-06T00:41:25;13.70;99.90
52731;DHT22;38624;53.242;6.974;2022-08-06T00:43:51;13.70;99.90
52731;DHT22;38624;53.242;6.974;2022-08-06T00:46:16;13.70;99.90
52731;DHT22;38624;53.242;6.974;2022-08-06T00:48:43;13.70;99.90
52731;DHT22;38624;53.242;6.974;2022-08-06T00:51:09;13.70;99.90
52731;DHT22;38624;53.242;6.974;2022-08-06T00:53:35;13.60;99.90
52731;DHT22;38624;53.242;6.974;2022-08-06T00:56:03;13.70;99.90
52731;DHT22;38624;53.242;6.974;2022-08-06T00:58:29;13.70;99.90
52731;DHT22;38624;53.242;6.974;2022-08-06T01:00:55;13.60;99.90
52731;DHT22;38624;53.242;6.974;2022-08-06T01:03:21;13.60;99.90
52731;DHT22;38624;53.242;6.974;2022-08-06T01:05:46;13.60;99.90
52731;DHT22;38624;53.242;6.974;2022-08-06T01:08:13;13.60;99.90
52731;DHT22;38624;53.242;6.974;2022-08-06T01:10:38;13.60;99.90
52731;DHT22;38624;53.242;6.974;2022-08-06T01:13:04;13.50;99.90
52731;DHT22;38624;53.242;6.974;2022-08-06T01:15:32;13.50;99.90
52731;DHT22;38624;53.242;6.974;2022-08-06T01:18:25;13.40;99.90
52731;DHT22;38624;53.242;6.974;2022-08-06T01:21:47;13.30;99.90
52731;DHT22;38624;53.242;6.974;2022-08-06T01:27:36;13.20;99.90
52731;DHT22;38624;53.242;6.974;2022-08-06T01:30:16;13.10;99.90
52731;DHT22;38624;53.242;6.974;2022-08-06T01:32:57;13.10;99.90
52731;DHT22;38624;53.242;6.974;2022-08-06T01:35:29;13.00;99.90
52731;DHT22;38624;53.242;6.974;2022-08-06T01:38:03;12.90;99.90
52731;DHT22;38624;53.242;6.974;2022-08-06T01:40:34;12.90;99.90
52731;DHT22;38624;53.242;6.974;2022-08-06T01:43:03;12.80;99.90
52731;DHT22;38624;53.242;6.974;2022-08-06T01:45:32;12.80;99.90
52731;DHT22;38624;53.242;6.974;2022-08-06T01:48:02;12.80;99.90
52731;DHT22;38624;53.242;6.974;2022-08-06T01:50:40;12.80;99.90
52731;DHT22;38624;53.242;6.974;2022-08-06T01:53:08;12.80;99.90
52731;DHT22;38624;53.242;6.974;2022-08-06T01:55:43;12.90;99.90
52731;DHT22;38624;53.242;6.974;2022-08-06T01:58:11;12.80;99.90
52731;DHT22;38624;53.242;6.974;2022-08-06T02:00:40;12.80;99.90
52731;DHT22;38624;53.242;6.974;2022-08-06T02:03:12;12.80;99.90
52731;DHT22;38624;53.242;6.974;2022-08-06T02:05:40;12.90;99.90
52731;DHT22;38624;53.242;6.974;2022-08-06T02:08:08;12.90;99.90
52731;DHT22;38624;53.242;6.974;2022-08-06T02:10:35;12.90;99.90
52731;DHT22;38624;53.242;6.974;2022-08-06T02:13:02;12.90;99.90
52731;DHT22;38624;53.242;6.974;2022-08-06T02:15:30;13.00;99.90
52731;DHT22;38624;53.242;6.974;2022-08-06T02:18:00;12.90;99.90
52731;DHT22;38624;53.242;6.974;2022-08-06T02:20:36;12.90;99.90
52731;DHT22;38624;53.242;6.974;2022-08-06T02:23:04;12.90;99.90
52731;DHT22;38624;53.242;6.974;2022-08-06T02:25:32;13.00;99.90
52731;DHT22;38624;53.242;6.974;2022-08-06T02:28:00;13.10;99.90
52731;DHT22;38624;53.242;6.974;2022-08-06T02:30:33;13.10;99.90
52731;DHT22;38624;53.242;6.974;2022-08-06T02:33:00;13.10;99.90
52731;DHT22;38624;53.242;6.974;2022-08-06T02:35:26;13.10;99.90
52731;DHT22;38624;53.242;6.974;2022-08-06T02:38:01;13.00;99.90
52731;DHT22;38624;53.242;6.974;2022-08-06T02:40:35;13.00;99.90
52731;DHT22;38624;53.242;6.974;2022-08-06T02:43:05;13.00;99.90
52731;DHT22;38624;53.242;6.974;2022-08-06T02:46:27;12.90;99.90
52731;DHT22;38624;53.242;6.974;2022-08-06T02:48:59;12.90;99.90
52731;DHT22;38624;53.242;6.974;2022-08-06T02:51:30;12.90;99.90
52731;DHT22;38624;53.242;6.974;2022-08-06T02:54:03;13.00;99.90
52731;DHT22;38624;53.242;6.974;2022-08-06T02:56:32;13.00;99.90
52731;DHT22;38624;53.242;6.974;2022-08-06T02:59:00;13.00;99.90
52731;DHT22;38624;53.242;6.974;2022-08-06T03:01:34;13.00;99.90
52731;DHT22;38624;53.242;6.974;2022-08-06T03:04:01;13.00;99.90
52731;DHT22;38624;53.242;6.974;2022-08-06T03:06:31;13.00;99.90
52731;DHT22;38624;53.242;6.974;2022-08-06T03:08:59;13.00;99.90
52731;DHT22;38624;53.242;6.974;2022-08-06T03:11:29;13.00;99.90
52731;DHT22;38624;53.242;6.974;2022-08-06T03:13:56;12.90;99.90
52731;DHT22;38624;53.242;6.974;2022-08-06T03:16:23;12.80;99.90
52731;DHT22;38624;53.242;6.974;2022-08-06T03:18:51;12.80;99.90
52731;DHT22;38624;53.242;6.974;2022-08-06T03:21:20;12.70;99.90
52731;DHT22;38624;53.242;6.974;2022-08-06T03:23:48;12.60;99.90
52731;DHT22;38624;53.242;6.974;2022-08-06T03:26:15;12.60;99.90
52731;DHT22;38624;53.242;6.974;2022-08-06T03:28:41;12.50;99.90
52731;DHT22;38624;53.242;6.974;2022-08-06T03:31:07;12.50;99.90
52731;DHT22;38624;53.242;6.974;2022-08-06T03:33:34;12.50;99.90
52731;DHT22;38624;53.242;6.974;2022-08-06T03:36:02;12.50;99.90
52731;DHT22;38624;53.242;6.974;2022-08-06T03:38:34;12.50;99.90
52731;DHT22;38624;53.242;6.974;2022-08-06T03:41:02;12.40;99.90
52731;DHT22;38624;53.242;6.974;2022-08-06T03:43:29;12.30;99.90
52731;DHT22;38624;53.242;6.974;2022-08-06T03:46:00;12.40;99.90
52731;DHT22;38624;53.242;6.974;2022-08-06T03:48:31;12.40;99.90
52731;DHT22;38624;53.242;6.974;2022-08-06T03:50:58;12.40;99.90
52731;DHT22;38624;53.242;6.974;2022-08-06T03:53:27;12.40;99.90
52731;DHT22;38624;53.242;6.974;2022-08-06T03:55:57;12.40;99.90
52731;DHT22;38624;53.242;6.974;2022-08-06T03:58:23;12.30;99.90
52731;DHT22;38624;53.242;6.974;2022-08-06T04:01:14;12.40;99.90
52731;DHT22;38624;53.242;6.974;2022-08-06T04:03:38;12.30;99.90
52731;DHT22;38624;53.242;6.974;2022-08-06T04:06:07;12.30;99.90
52731;DHT22;38624;53.242;6.974;2022-08-06T04:08:38;12.30;99.90
52731;DHT22;38624;53.242;6.974;2022-08-06T04:11:05;12.30;99.90
52731;DHT22;38624;53.242;6.974;2022-08-06T04:13:31;12.30;99.90
52731;DHT22;38624;53.242;6.974;2022-08-06T04:15:57;12.30;99.90
52731;DHT22;38624;53.242;6.974;2022-08-06T04:18:29;12.20;99.90
52731;DHT22;38624;53.242;6.974;2022-08-06T04:21:02;12.20;99.90
52731;DHT22;38624;53.242;6.974;2022-08-06T04:23:29;12.20;99.90
52731;DHT22;38624;53.242;6.974;2022-08-06T04:25:57;12.20;99.90
52731;DHT22;38624;53.242;6.974;2022-08-06T04:28:25;12.20;99.90
52731;DHT22;38624;53.242;6.974;2022-08-06T04:30:53;12.20;99.90
52731;DHT22;38624;53.242;6.974;2022-08-06T04:33:21;12.20;99.90
52731;DHT22;38624;53.242;6.974;2022-08-06T04:35:48;12.20;99.90
52731;DHT22;38624;53.242;6.974;2022-08-06T04:38:15;12.20;99.90
52731;DHT22;38624;53.242;6.974;2022-08-06T04:40:42;12.20;99.90
52731;DHT22;38624;53.242;6.974;2022-08-06T04:43:12;12.30;99.90
52731;DHT22;38624;53.242;6.974;2022-08-06T04:45:40;12.30;99.90
52731;DHT22;38624;53.242;6.974;2022-08-06T04:48:09;12.40;99.90
52731;DHT22;38624;53.242;6.974;2022-08-06T04:50:36;12.40;99.90
52731;DHT22;38624;53.242;6.974;2022-08-06T04:55:31;12.70;99.90
52731;DHT22;38624;53.242;6.974;2022-08-06T04:57:57;12.70;99.90
52731;DHT22;38624;53.242;6.974;2022-08-06T05:00:23;12.80;99.90
52731;DHT22;38624;53.242;6.974;2022-08-06T05:02:51;12.80;99.90
52731;DHT22;38624;53.242;6.974;2022-08-06T05:05:19;12.80;99.90
52731;DHT22;38624;53.242;6.974;2022-08-06T05:07:45;12.80;99.90
52731;DHT22;38624;53.242;6.974;2022-08-06T05:10:11;12.80;99.90
52731;DHT22;38624;53.242;6.974;2022-08-06T05:12:40;12.90;99.90
52731;DHT22;38624;53.242;6.974;2022-08-06T05:15:13;12.90;99.90
52731;DHT22;38624;53.242;6.974;2022-08-06T05:17:48;13.00;99.90
52731;DHT22;38624;53.242;6.974;2022-08-06T05:20:18;13.10;99.90
52731;DHT22;38624;53.242;6.974;2022-08-06T05:22:47;13.10;99.90
52731;DHT22;38624;53.242;6.974;2022-08-06T05:25:14;13.10;99.90
52731;DHT22;38624;53.242;6.974;2022-08-06T05:27:41;13.20;99.90
52731;DHT22;38624;53.242;6.974;2022-08-06T05:30:07;13.40;99.90
52731;DHT22;38624;53.242;6.974;2022-08-06T05:32:47;13.50;99.90
52731;DHT22;38624;53.242;6.974;2022-08-06T05:35:13;13.60;99.90
52731;DHT22;38624;53.242;6.974;2022-08-06T05:37:40;13.80;99.90
52731;DHT22;38624;53.242;6.974;2022-08-06T05:40:06;13.90;99.90
52731;DHT22;38624;53.242;6.974;2022-08-06T05:42:32;14.00;99.90
52731;DHT22;38624;53.242;6.974;2022-08-06T05:44:58;14.10;99.90
52731;DHT22;38624;53.242;6.974;2022-08-06T05:47:27;14.10;99.90
52731;DHT22;38624;53.242;6.974;2022-08-06T05:50:04;14.10;99.90
52731;DHT22;38624;53.242;6.974;2022-08-06T05:52:42;14.20;99.90
52731;DHT22;38624;53.242;6.974;2022-08-06T05:55:21;14.10;99.90
52731;DHT22;38624;53.242;6.974;2022-08-06T05:57:54;14.20;99.90
52731;DHT22;38624;53.242;6.974;2022-08-06T06:00:25;14.10;99.90
52731;DHT22;38624;53.242;6.974;2022-08-06T06:02:54;14.10;99.90
52731;DHT22;38624;53.242;6.974;2022-08-06T06:05:21;14.10;99.90
52731;DHT22;38624;53.242;6.974;2022-08-06T06:07:49;14.20;99.90
52731;DHT22;38624;53.242;6.974;2022-08-06T06:10:16;14.40;99.90
52731;DHT22;38624;53.242;6.974;2022-08-06T06:12:42;14.50;99.90
52731;DHT22;38624;53.242;6.974;2022-08-06T06:15:12;14.60;99.90
52731;DHT22;38624;53.242;6.974;2022-08-06T06:18:07;14.70;99.90
52731;DHT22;38624;53.242;6.974;2022-08-06T06:20:55;14.70;99.90
52731;DHT22;38624;53.242;6.974;2022-08-06T06:34:45;15.50;99.90
52731;DHT22;38624;53.242;6.974;2022-08-06T06:37:37;15.90;99.90
52731;DHT22;38624;53.242;6.974;2022-08-06T06:43:12;16.20;99.90
52731;DHT22;38624;53.242;6.974;2022-08-06T06:46:06;16.30;99.90
52731;DHT22;38624;53.242;6.974;2022-08-06T06:48:44;16.60;99.90
52731;DHT22;38624;53.242;6.974;2022-08-06T06:51:36;16.80;99.90
52731;DHT22;38624;53.242;6.974;2022-08-06T06:54:01;16.90;99.90
52731;DHT22;38624;53.242;6.974;2022-08-06T06:56:31;17.00;99.90
52731;DHT22;38624;53.242;6.974;2022-08-06T06:59:11;17.00;99.90
52731;DHT22;38624;53.242;6.974;2022-08-06T07:01:39;17.00;99.90
52731;DHT22;38624;53.242;6.974;2022-08-06T07:04:08;17.00;99.90
52731;DHT22;38624;53.242;6.974;2022-08-06T07:06:36;17.10;99.90
52731;DHT22;38624;53.242;6.974;2022-08-06T07:09:02;17.10;99.90
52731;DHT22;38624;53.242;6.974;2022-08-06T07:11:29;17.20;99.90
52731;DHT22;38624;53.242;6.974;2022-08-06T07:13:57;17.20;99.90
52731;DHT22;38624;53.242;6.974;2022-08-06T07:16:25;17.30;99.90
52731;DHT22;38624;53.242;6.974;2022-08-06T07:18:52;17.30;99.90
52731;DHT22;38624;53.242;6.974;2022-08-06T07:21:20;17.40;99.90
52731;DHT22;38624;53.242;6.974;2022-08-06T07:23:50;17.40;99.90
52731;DHT22;38624;53.242;6.974;2022-08-06T07:26:21;17.40;99.90
52731;DHT22;38624;53.242;6.974;2022-08-06T07:28:50;17.40;99.90
52731;DHT22;38624;53.242;6.974;2022-08-06T07:31:16;17.40;99.90
52731;DHT22;38624;53.242;6.974;2022-08-06T07:33:44;17.40;99.90
52731;DHT22;38624;53.242;6.974;2022-08-06T07:36:14;17.50;99.90
52731;DHT22;38624;53.242;6.974;2022-08-06T07:38:43;17.70;99.90
52731;DHT22;38624;53.242;6.974;2022-08-06T07:41:11;17.80;99.90
52731;DHT22;38624;53.242;6.974;2022-08-06T07:43:46;17.80;99.90
52731;DHT22;38624;53.242;6.974;2022-08-06T07:46:15;17.90;99.90
52731;DHT22;38624;53.242;6.974;2022-08-06T07:48:47;18.00;99.90
52731;DHT22;38624;53.242;6.974;2022-08-06T07:51:15;18.10;99.90
52731;DHT22;38624;53.242;6.974;2022-08-06T07:53:43;18.20;99.90
52731;DHT22;38624;53.242;6.974;2022-08-06T07:56:10;18.30;99.90
52731;DHT22;38624;53.242;6.974;2022-08-06T07:58:37;18.40;99.90
52731;DHT22;38624;53.242;6.974;2022-08-06T08:01:03;18.60;99.90
52731;DHT22;38624;53.242;6.974;2022-08-06T08:03:32;18.70;99.90
52731;DHT22;38624;53.242;6.974;2022-08-06T08:06:17;18.80;99.90
52731;DHT22;38624;53.242;6.974;2022-08-06T08:08:44;18.80;99.90
52731;DHT22;38624;53.242;6.974;2022-08-06T08:11:13;18.70;99.90
52731;DHT22;38624;53.242;6.974;2022-08-06T08:13:39;18.70;99.90
52731;DHT22;38624;53.242;6.974;2022-08-06T08:16:06;18.90;99.90
52731;DHT22;38624;53.242;6.974;2022-08-06T08:18:33;19.30;99.90
52731;DHT22;38624;53.242;6.974;2022-08-06T08:21:00;19.20;99.90
52731;DHT22;38624;53.242;6.974;2022-08-06T08:23:28;19.10;99.90
52731;DHT22;38624;53.242;6.974;2022-08-06T08:25:58;19.10;99.90
52731;DHT22;38624;53.242;6.974;2022-08-06T08:28:24;19.20;99.90
52731;DHT22;38624;53.242;6.974;2022-08-06T08:30:50;19.30;99.90
52731;DHT22;38624;53.242;6.974;2022-08-06T08:33:17;19.30;99.90
52731;DHT22;38624;53.242;6.974;2022-08-06T08:35:43;19.20;99.90
52731;DHT22;38624;53.242;6.974;2022-08-06T08:38:09;19.10;99.90
52731;DHT22;38624;53.242;6.974;2022-08-06T08:40:36;19.00;99.90
52731;DHT22;38624;53.242;6.974;2022-08-06T08:43:02;18.90;99.90
52731;DHT22;38624;53.242;6.974;2022-08-06T08:45:28;18.90;99.90
52731;DHT22;38624;53.242;6.974;2022-08-06T08:47:57;18.80;99.90
52731;DHT22;38624;53.242;6.974;2022-08-06T08:50:27;18.80;99.90
52731;DHT22;38624;53.242;6.974;2022-08-06T08:53:02;18.90;99.90
52731;DHT22;38624;53.242;6.974;2022-08-06T08:55:28;19.00;99.90
52731;DHT22;38624;53.242;6.974;2022-08-06T08:57:55;18.90;99.90
52731;DHT22;38624;53.242;6.974;2022-08-06T09:00:22;18.90;99.90
52731;DHT22;38624;53.242;6.974;2022-08-06T09:02:50;18.90;99.90
52731;DHT22;38624;53.242;6.974;2022-08-06T09:05:17;19.10;99.90
52731;DHT22;38624;53.242;6.974;2022-08-06T09:07:43;19.40;99.90
52731;DHT22;38624;53.242;6.974;2022-08-06T09:10:10;19.30;99.90
52731;DHT22;38624;53.242;6.974;2022-08-06T09:12:36;19.30;99.90
52731;DHT22;38624;53.242;6.974;2022-08-06T09:15:03;19.50;99.90
52731;DHT22;38624;53.242;6.974;2022-08-06T09:17:29;19.80;99.90
52731;DHT22;38624;53.242;6.974;2022-08-06T09:19:56;20.20;99.90
52731;DHT22;38624;53.242;6.974;2022-08-06T09:22:22;20.60;99.90
52731;DHT22;38624;53.242;6.974;2022-08-06T09:24:48;20.70;99.90
52731;DHT22;38624;53.242;6.974;2022-08-06T09:27:17;20.30;99.90
52731;DHT22;38624;53.242;6.974;2022-08-06T09:29:58;19.90;99.90
52731;DHT22;38624;53.242;6.974;2022-08-06T09:32:38;19.60;99.90
52731;DHT22;38624;53.242;6.974;2022-08-06T09:37:41;19.20;99.90
52731;DHT22;38624;53.242;6.974;2022-08-06T09:40:18;19.00;99.90
52731;DHT22;38624;53.242;6.974;2022-08-06T09:42:47;18.80;99.90
52731;DHT22;38624;53.242;6.974;2022-08-06T09:45:19;18.70;99.90
52731;DHT22;38624;53.242;6.974;2022-08-06T09:47:46;18.40;99.90
52731;DHT22;38624;53.242;6.974;2022-08-06T09:50:13;18.20;99.90
52731;DHT22;38624;53.242;6.974;2022-08-06T09:52:38;18.10;99.90
52731;DHT22;38624;53.242;6.974;2022-08-06T09:55:05;18.10;99.90
52731;DHT22;38624;53.242;6.974;2022-08-06T09:57:44;18.10;99.90
52731;DHT22;38624;53.242;6.974;2022-08-06T10:00:11;18.50;99.90
52731;DHT22;38624;53.242;6.974;2022-08-06T10:02:49;18.90;99.90
52731;DHT22;38624;53.242;6.974;2022-08-06T10:05:15;19.40;99.90
52731;DHT22;38624;53.242;6.974;2022-08-06T10:07:40;19.90;99.90
52731;DHT22;38624;53.242;6.974;2022-08-06T10:10:07;20.20;99.90
52731;DHT22;38624;53.242;6.974;2022-08-06T10:12:33;20.50;99.90
52731;DHT22;38624;53.242;6.974;2022-08-06T10:14:59;20.90;99.90
52731;DHT22;38624;53.242;6.974;2022-08-06T10:17:25;20.90;99.90
52731;DHT22;38624;53.242;6.974;2022-08-06T10:20:07;20.80;99.90
52731;DHT22;38624;53.242;6.974;2022-08-06T10:22:33;20.50;99.90
52731;DHT22;38624;53.242;6.974;2022-08-06T10:25:01;20.40;99.90
52731;DHT22;38624;53.242;6.974;2022-08-06T10:27:30;20.50;99.90
52731;DHT22;38624;53.242;6.974;2022-08-06T10:30:06;20.80;99.90
52731;DHT22;38624;53.242;6.974;2022-08-06T10:32:46;21.30;99.90
52731;DHT22;38624;53.242;6.974;2022-08-06T10:35:16;21.70;99.90
52731;DHT22;38624;53.242;6.974;2022-08-06T10:37:49;22.10;99.30
52731;DHT22;38624;53.242;6.974;2022-08-06T10:40:19;22.10;97.80
52731;DHT22;38624;53.242;6.974;2022-08-06T10:42:46;21.80;98.30
52731;DHT22;38624;53.242;6.974;2022-08-06T10:45:13;21.80;98.10
52731;DHT22;38624;53.242;6.974;2022-08-06T10:47:41;21.50;97.60
52731;DHT22;38624;53.242;6.974;2022-08-06T10:50:09;21.30;97.30
52731;DHT22;38624;53.242;6.974;2022-08-06T10:52:35;21.60;97.30
52731;DHT22;38624;53.242;6.974;2022-08-06T10:55:04;21.80;96.80
52731;DHT22;38624;53.242;6.974;2022-08-06T10:57:30;21.90;96.40
52731;DHT22;38624;53.242;6.974;2022-08-06T10:59:57;21.70;95.90
52731;DHT22;38624;53.242;6.974;2022-08-06T11:03:30;21.60;95.70
52731;DHT22;38624;53.242;6.974;2022-08-06T11:05:37;21.80;95.70
52731;DHT22;38624;53.242;6.974;2022-08-06T11:16:25;22.50;92.80
52731;DHT22;38624;53.242;6.974;2022-08-06T11:19:09;22.80;93.20
52731;DHT22;38624;53.242;6.974;2022-08-06T11:21:43;23.30;93.60
52731;DHT22;38624;53.242;6.974;2022-08-06T11:24:09;23.20;92.60
52731;DHT22;38624;53.242;6.974;2022-08-06T11:26:37;23.00;92.30
52731;DHT22;38624;53.242;6.974;2022-08-06T11:29:04;23.00;92.30
52731;DHT22;38624;53.242;6.974;2022-08-06T11:31:36;23.50;92.20
52731;DHT22;38624;53.242;6.974;2022-08-06T11:34:04;23.90;91.10
52731;DHT22;38624;53.242;6.974;2022-08-06T11:36:55;24.30;90.90
52731;DHT22;38624;53.242;6.974;2022-08-06T11:39:24;24.80;88.60
52731;DHT22;38624;53.242;6.974;2022-08-06T11:42:02;25.10;89.50
52731;DHT22;38624;53.242;6.974;2022-08-06T11:44:33;25.50;89.30
52731;DHT22;38624;53.242;6.974;2022-08-06T11:47:13;25.40;84.60
52731;DHT22;38624;53.242;6.974;2022-08-06T11:49:46;25.10;85.70
52731;DHT22;38624;53.242;6.974;2022-08-06T11:55:03;24.90;83.90
52731;DHT22;38624;53.242;6.974;2022-08-06T11:57:30;24.70;82.10
52731;DHT22;38624;53.242;6.974;2022-08-06T12:07:45;23.70;81.40
52731;DHT22;38624;53.242;6.974;2022-08-06T12:10:15;23.70;85.10
52731;DHT22;38624;53.242;6.974;2022-08-06T12:12:43;24.10;83.30
52731;DHT22;38624;53.242;6.974;2022-08-06T12:20:05;24.80;82.50
52731;DHT22;38624;53.242;6.974;2022-08-06T12:22:33;25.30;85.30
52731;DHT22;38624;53.242;6.974;2022-08-06T12:25:04;26.00;84.40
52731;DHT22;38624;53.242;6.974;2022-08-06T12:27:32;26.60;83.80
52731;DHT22;38624;53.242;6.974;2022-08-06T12:29:59;26.90;82.40
52731;DHT22;38624;53.242;6.974;2022-08-06T12:32:34;26.60;81.50
52731;DHT22;38624;53.242;6.974;2022-08-06T12:35:03;26.80;81.80
52731;DHT22;38624;53.242;6.974;2022-08-06T12:37:37;27.00;81.90
52731;DHT22;38624;53.242;6.974;2022-08-06T12:40:07;27.10;79.20
52731;DHT22;38624;53.242;6.974;2022-08-06T12:45:29;28.10;80.10
52731;DHT22;38624;53.242;6.974;2022-08-06T12:48:09;28.60;79.70
52731;DHT22;38624;53.242;6.974;2022-08-06T12:50:41;29.00;76.70
52731;DHT22;38624;53.242;6.974;2022-08-06T12:53:16;29.00;77.00
52731;DHT22;38624;53.242;6.974;2022-08-06T12:55:47;29.10;72.20
52731;DHT22;38624;53.242;6.974;2022-08-06T12:58:18;29.40;76.10
52731;DHT22;38624;53.242;6.974;2022-08-06T13:00:53;29.80;73.20
52731;DHT22;38624;53.242;6.974;2022-08-06T13:03:23;30.10;71.90
52731;DHT22;38624;53.242;6.974;2022-08-06T13:05:50;29.20;69.90
52731;DHT22;38624;53.242;6.974;2022-08-06T13:08:16;29.50;70.50
52731;DHT22;38624;53.242;6.974;2022-08-06T13:10:51;29.80;68.10
52731;DHT22;38624;53.242;6.974;2022-08-06T13:13:18;29.60;69.20
52731;DHT22;38624;53.242;6.974;2022-08-06T13:16:06;29.20;69.00
52731;DHT22;38624;53.242;6.974;2022-08-06T13:18:33;30.10;68.70
52731;DHT22;38624;53.242;6.974;2022-08-06T13:21:00;30.40;68.00
52731;DHT22;38624;53.242;6.974;2022-08-06T13:23:37;31.00;67.70
52731;DHT22;38624;53.242;6.974;2022-08-06T13:29:34;31.90;65.10
52731;DHT22;38624;53.242;6.974;2022-08-06T13:32:10;32.30;65.20
52731;DHT22;38624;53.242;6.974;2022-08-06T13:34:50;32.90;62.90
52731;DHT22;38624;53.242;6.974;2022-08-06T13:37:39;33.20;65.70
52731;DHT22;38624;53.242;6.974;2022-08-06T13:40:03;32.60;60.30
52731;DHT22;38624;53.242;6.974;2022-08-06T13:42:29;33.40;60.60
52731;DHT22;38624;53.242;6.974;2022-08-06T13:44:55;33.50;59.80
52731;DHT22;38624;53.242;6.974;2022-08-06T13:47:28;31.80;60.00
52731;DHT22;38624;53.242;6.974;2022-08-06T13:49:54;32.80;59.50
52731;DHT22;38624;53.242;6.974;2022-08-06T13:52:20;33.20;60.80
52731;DHT22;38624;53.242;6.974;2022-08-06T13:54:46;32.00;60.40
52731;DHT22;38624;53.242;6.974;2022-08-06T13:57:12;32.80;60.10
52731;DHT22;38624;53.242;6.974;2022-08-06T13:59:37;33.30;59.40
52731;DHT22;38624;53.242;6.974;2022-08-06T14:02:04;33.90;57.60
52731;DHT22;38624;53.242;6.974;2022-08-06T14:04:30;34.00;58.60
52731;DHT22;38624;53.242;6.974;2022-08-06T14:06:58;32.40;57.90
52731;DHT22;38624;53.242;6.974;2022-08-06T14:09:26;32.50;58.50
52731;DHT22;38624;53.242;6.974;2022-08-06T14:11:58;31.50;58.60
52731;DHT22;38624;53.242;6.974;2022-08-06T14:14:26;32.70;58.40
52731;DHT22;38624;53.242;6.974;2022-08-06T14:16:53;31.70;58.20
52731;DHT22;38624;53.242;6.974;2022-08-06T14:19:19;32.30;58.20
52731;DHT22;38624;53.242;6.974;2022-08-06T14:21:44;31.40;57.80
52731;DHT22;38624;53.242;6.974;2022-08-06T14:24:10;31.20;59.20
52731;DHT22;38624;53.242;6.974;2022-08-06T14:26:36;31.00;58.70
52731;DHT22;38624;53.242;6.974;2022-08-06T14:29:03;31.00;58.40
52731;DHT22;38624;53.242;6.974;2022-08-06T14:31:30;31.20;58.30
52731;DHT22;38624;53.242;6.974;2022-08-06T14:33:57;32.00;58.20
52731;DHT22;38624;53.242;6.974;2022-08-06T14:36:24;32.70;57.60
52731;DHT22;38624;53.242;6.974;2022-08-06T14:38:49;33.10;57.00
52731;DHT22;38624;53.242;6.974;2022-08-06T14:41:15;33.50;56.70
52731;DHT22;38624;53.242;6.974;2022-08-06T14:43:59;34.10;56.40
52731;DHT22;38624;53.242;6.974;2022-08-06T14:46:43;34.40;55.60
52731;DHT22;38624;53.242;6.974;2022-08-06T14:49:09;33.70;55.20
52731;DHT22;38624;53.242;6.974;2022-08-06T14:51:35;34.10;55.40
52731;DHT22;38624;53.242;6.974;2022-08-06T14:54:00;34.60;55.30
52731;DHT22;38624;53.242;6.974;2022-08-06T14:56:26;35.00;55.10
52731;DHT22;38624;53.242;6.974;2022-08-06T14:58:52;35.20;54.50
52731;DHT22;38624;53.242;6.974;2022-08-06T15:01:17;35.40;53.20
52731;DHT22;38624;53.242;6.974;2022-08-06T15:03:43;35.60;53.10
52731;DHT22;38624;53.242;6.974;2022-08-06T15:06:09;35.70;52.60
52731;DHT22;38624;53.242;6.974;2022-08-06T15:08:35;35.40;53.30
52731;DHT22;38624;53.242;6.974;2022-08-06T15:11:01;35.80;52.80
52731;DHT22;38624;53.242;6.974;2022-08-06T15:13:27;36.20;53.40
52731;DHT22;38624;53.242;6.974;2022-08-06T15:15:53;36.40;53.00
52731;DHT22;38624;53.242;6.974;2022-08-06T15:18:19;34.80;52.40
52731;DHT22;38624;53.242;6.974;2022-08-06T15:20:44;33.30;53.80
52731;DHT22;38624;53.242;6.974;2022-08-06T15:23:10;33.80;52.80
52731;DHT22;38624;53.242;6.974;2022-08-06T15:25:35;34.70;53.30
52731;DHT22;38624;53.242;6.974;2022-08-06T15:28:01;35.40;52.60
52731;DHT22;38624;53.242;6.974;2022-08-06T15:30:27;36.10;52.00
52731;DHT22;38624;53.242;6.974;2022-08-06T15:32:53;36.20;51.90
52731;DHT22;38624;53.242;6.974;2022-08-06T15:35:20;36.50;51.70
52731;DHT22;38624;53.242;6.974;2022-08-06T15:37:45;36.70;50.90
52731;DHT22;38624;53.242;6.974;2022-08-06T15:40:11;36.60;50.20
52731;DHT22;38624;53.242;6.974;2022-08-06T15:42:37;37.00;50.40
52731;DHT22;38624;53.242;6.974;2022-08-06T15:45:03;36.80;50.00
52731;DHT22;38624;53.242;6.974;2022-08-06T15:47:29;36.70;49.80
52731;DHT22;38624;53.242;6.974;2022-08-06T15:49:56;36.70;49.70
52731;DHT22;38624;53.242;6.974;2022-08-06T15:52:21;36.80;49.70
52731;DHT22;38624;53.242;6.974;2022-08-06T15:54:47;36.30;49.60
52731;DHT22;38624;53.242;6.974;2022-08-06T15:57:13;36.30;49.80
52731;DHT22;38624;53.242;6.974;2022-08-06T15:59:41;36.60;49.70
52731;DHT22;38624;53.242;6.974;2022-08-06T16:02:07;36.50;49.60
52731;DHT22;38624;53.242;6.974;2022-08-06T16:04:32;36.40;49.30
52731;DHT22;38624;53.242;6.974;2022-08-06T16:06:58;36.50;49.30
52731;DHT22;38624;53.242;6.974;2022-08-06T16:09:24;36.40;49.30
52731;DHT22;38624;53.242;6.974;2022-08-06T16:11:50;36.70;50.00
52731;DHT22;38624;53.242;6.974;2022-08-06T16:14:15;36.90;49.20
52731;DHT22;38624;53.242;6.974;2022-08-06T16:16:41;37.00;48.90
52731;DHT22;38624;53.242;6.974;2022-08-06T16:19:07;37.00;48.80
52731;DHT22;38624;53.242;6.974;2022-08-06T16:21:32;37.20;48.50
52731;DHT22;38624;53.242;6.974;2022-08-06T16:23:59;37.00;47.50
52731;DHT22;38624;53.242;6.974;2022-08-06T16:26:25;37.10;48.00
52731;DHT22;38624;53.242;6.974;2022-08-06T16:28:51;37.20;47.80
52731;DHT22;38624;53.242;6.974;2022-08-06T16:31:17;37.20;47.80
52731;DHT22;38624;53.242;6.974;2022-08-06T16:33:42;37.20;48.20
52731;DHT22;38624;53.242;6.974;2022-08-06T16:36:08;37.30;47.80
52731;DHT22;38624;53.242;6.974;2022-08-06T16:38:34;37.20;47.90